Time;durP1;ratioP1;P1;durP2;ratioP2;P2;SDS_P1;SDS_P2;PMS_P1;PMS_P2;Temp;Humidity;BMP_temperature;BMP_pressure;BME280_temperature;BME280_humidity;BME280_pressure;Samples;Min_cycle;Max_cycle;Signal;HPM_P1;HPM_P2
2023/10/03 00:00:57;;;;;;;5.28;3.00;;;;;;;20.95;40.33;100604.31;5050266;28;20135;-37
2023/10/03 00:03:23;;;;;;;7.95;3.20;;;;;;;20.28;41.78;100616.88;5052675;28;20111;-39
2023/10/03 00:05:51;;;;;;;5.40;3.10;;;;;;;20.36;41.92;100612.94;5053690;28;20071;-39
2023/10/03 00:08:17;;;;;;;6.53;3.17;;;;;;;20.59;41.17;100607.31;5053884;28;20025;-39
2023/10/03 00:10:45;;;;;;;8.40;3.63;;;;;;;20.94;40.49;100611.59;5054060;28;20029;-39
2023/10/03 00:13:12;;;;;;;6.80;3.33;;;;;;;21.02;40.11;100622.00;5054073;28;20029;-41
2023/10/03 00:15:43;;;;;;;6.10;3.50;;;;;;;20.93;40.66;100609.16;5053656;28;20128;-39
2023/10/03 00:18:13;;;;;;;6.55;3.30;;;;;;;21.06;40.88;100612.28;5053592;28;20189;-40
2023/10/03 00:20:39;;;;;;;6.43;3.60;;;;;;;20.87;41.03;100611.78;5053469;28;20469;-39
2023/10/03 00:23:04;;;;;;;10.52;4.10;;;;;;;20.84;40.56;100609.56;5053656;28;20104;-39
2023/10/03 00:25:30;;;;;;;8.50;3.58;;;;;;;20.86;40.76;100612.84;5053325;28;20021;-39
2023/10/03 00:28:00;;;;;;;7.85;3.42;;;;;;;21.01;40.90;100608.72;5053369;28;20111;-39
2023/10/03 00:30:26;;;;;;;8.40;3.70;;;;;;;20.79;41.55;100614.09;5053725;28;20059;-39
2023/10/03 00:32:53;;;;;;;8.23;3.47;;;;;;;20.95;40.36;100609.72;5053334;28;20036;-40
2023/10/03 00:35:21;;;;;;;5.43;3.03;;;;;;;21.14;39.31;100605.63;5053486;28;20017;-39
2023/10/03 00:37:50;;;;;;;7.70;3.57;;;;;;;21.16;39.60;100608.06;5053383;28;20060;-40
2023/10/03 00:40:18;;;;;;;6.82;3.22;;;;;;;20.94;40.56;100606.19;5053250;28;20051;-39
2023/10/03 00:42:46;;;;;;;9.25;3.55;;;;;;;20.87;40.96;100600.16;5053115;28;20037;-44
2023/10/03 00:45:12;;;;;;;6.72;3.08;;;;;;;20.75;40.32;100604.84;5053277;28;20029;-39
2023/10/03 00:47:37;;;;;;;8.75;3.35;;;;;;;20.80;40.25;100608.44;5053241;28;20087;-39
2023/10/03 00:50:04;;;;;;;7.78;3.50;;;;;;;20.95;40.21;100605.13;5053087;28;20484;-39
2023/10/03 00:52:31;;;;;;;5.35;3.33;;;;;;;20.87;40.34;100600.97;5053270;28;20032;-39
2023/10/03 00:54:59;;;;;;;6.13;3.25;;;;;;;20.71;41.58;100601.81;5052801;28;20027;-38
2023/10/03 00:57:24;;;;;;;4.60;2.90;;;;;;;20.81;41.03;100601.13;5052708;28;20451;-38
2023/10/03 00:59:50;;;;;;;6.30;2.90;;;;;;;20.79;41.16;100606.81;5052815;28;20098;-39
2023/10/03 01:02:15;;;;;;;7.85;3.28;;;;;;;20.91;41.51;100604.00;5052690;28;20048;-39
2023/10/03 01:04:41;;;;;;;7.15;3.40;;;;;;;20.97;41.29;100610.28;5052846;28;20025;-40
2023/10/03 01:07:07;;;;;;;6.55;3.17;;;;;;;20.92;41.30;100607.50;5052758;28;20606;-40
2023/10/03 01:09:33;;;;;;;7.03;3.33;;;;;;;20.76;41.47;100607.31;5052905;28;20063;-40
2023/10/03 01:11:59;;;;;;;7.43;3.05;;;;;;;20.69;41.46;100602.09;5052916;28;20047;-40
2023/10/03 01:14:26;;;;;;;7.47;3.45;;;;;;;20.78;41.36;100617.88;5051478;28;20030;-40
2023/10/03 01:16:52;;;;;;;8.02;3.33;;;;;;;20.63;42.03;100605.78;5052436;28;20056;-40
2023/10/03 01:21:45;;;;;;;6.03;3.17;;;;;;;20.26;42.78;100609.00;5052311;28;20047;-40
2023/10/03 01:24:20;;;;;;;8.70;3.47;;;;;;;20.20;42.38;100609.16;5052534;28;20027;-40
2023/10/03 01:26:45;;;;;;;6.70;3.35;;;;;;;19.99;42.80;100611.53;5052271;28;20033;-40
2023/10/03 01:29:11;;;;;;;6.38;3.35;;;;;;;19.95;43.43;100602.28;5052350;28;20029;-40
2023/10/03 01:31:36;;;;;;;7.05;3.40;;;;;;;19.91;44.03;100603.81;5052278;28;20577;-40
2023/10/03 01:34:05;;;;;;;6.00;3.28;;;;;;;19.97;43.54;100605.56;5052348;28;20025;-38
2023/10/03 01:36:31;;;;;;;9.90;3.30;;;;;;;20.06;42.97;100590.56;5052253;28;20460;-39
2023/10/03 01:38:56;;;;;;;10.15;3.53;;;;;;;20.05;42.90;100607.06;5052500;28;20476;-39
2023/10/03 01:41:22;;;;;;;8.68;3.35;;;;;;;20.06;43.21;100600.56;5051991;28;20025;-39
2023/10/03 01:43:48;;;;;;;7.57;3.30;;;;;;;20.05;42.95;100599.75;5052240;28;20071;-39
2023/10/03 01:46:13;;;;;;;8.68;3.60;;;;;;;19.98;43.48;100601.78;5051620;28;20028;-39
2023/10/03 01:48:39;;;;;;;10.32;3.60;;;;;;;19.95;43.95;100602.28;5051808;28;20492;-39
2023/10/03 01:51:06;;;;;;;6.47;3.50;;;;;;;20.00;43.55;100604.25;5052144;28;20044;-39
2023/10/03 01:53:32;;;;;;;8.25;3.75;;;;;;;19.94;43.26;100602.53;5051794;28;20408;-39
2023/10/03 01:55:57;;;;;;;9.13;3.50;;;;;;;19.70;43.96;100599.94;5051769;28;20028;-41
2023/10/03 01:58:24;;;;;;;7.65;3.70;;;;;;;19.73;44.09;100602.19;5051976;28;20070;-39
2023/10/03 02:00:50;;;;;;;6.65;3.65;;;;;;;19.87;43.27;100603.50;5051527;28;20080;-39
2023/10/03 02:03:18;;;;;;;9.35;3.60;;;;;;;19.92;43.45;100594.69;5051751;28;20029;-40
2023/10/03 02:05:45;;;;;;;8.38;3.75;;;;;;;19.94;44.11;100605.25;5051263;28;20032;-40
2023/10/03 02:08:17;;;;;;;8.23;3.50;;;;;;;19.92;43.96;100609.00;5051643;28;20392;-39
2023/10/03 02:10:47;;;;;;;5.95;3.70;;;;;;;19.92;43.58;100602.78;5051672;28;20028;-41
2023/10/03 02:13:14;;;;;;;7.20;3.67;;;;;;;19.87;43.65;100605.38;5051525;28;20477;-39
2023/10/03 02:15:44;;;;;;;8.20;3.97;;;;;;;19.86;43.68;100606.47;5051468;28;20027;-39
2023/10/03 02:18:10;;;;;;;11.88;3.95;;;;;;;19.79;43.98;100603.91;5051142;28;20037;-40
2023/10/03 02:20:52;;;;;;;8.70;3.33;;;;;;;19.57;44.09;100605.63;5050890;28;20029;-40
2023/10/03 02:23:19;;;;;;;7.82;4.07;;;;;;;19.52;44.70;100609.88;5051408;28;20029;-40
2023/10/03 02:25:49;;;;;;;8.40;4.03;;;;;;;19.37;45.48;100615.00;5050878;28;20029;-39
2023/10/03 02:28:17;;;;;;;;;;;;;;;19.71;45.12;100605.09;5051828;28;20130;-38
2023/10/03 02:30:48;;;;;;;11.30;4.00;;;;;;;19.57;44.97;100611.84;5051103;28;20313;-38
2023/10/03 02:33:15;;;;;;;6.55;3.58;;;;;;;19.54;45.51;100609.63;5051142;28;20104;-39
2023/10/03 02:35:42;;;;;;;7.93;4.10;;;;;;;19.53;45.07;100610.69;5051273;28;20531;-41
2023/10/03 02:38:10;;;;;;;12.93;4.20;;;;;;;19.46;45.23;100618.94;5051492;28;20107;-38
2023/10/03 02:40:36;;;;;;;9.68;4.00;;;;;;;19.31;45.35;100615.97;5050994;28;20021;-40
2023/10/03 02:43:01;;;;;;;7.80;3.92;;;;;;;19.17;45.96;100617.28;5051170;28;20108;-39
2023/10/03 02:45:27;;;;;;;6.88;3.70;;;;;;;19.06;46.08;100622.47;5051047;28;20025;-40
2023/10/03 02:47:55;;;;;;;7.88;4.20;;;;;;;19.03;46.44;100620.25;5051552;28;20028;-40
2023/10/03 02:50:21;;;;;;;8.05;3.83;;;;;;;19.03;46.18;100628.34;5051119;28;20028;-41
2023/10/03 02:52:46;;;;;;;10.77;4.40;;;;;;;19.03;45.85;100622.13;5051157;28;20024;-40
2023/10/03 02:55:14;;;;;;;7.45;3.70;;;;;;;18.97;46.58;100625.78;5050904;28;20025;-40
2023/10/03 02:57:40;;;;;;;7.80;3.65;;;;;;;18.99;46.71;100629.06;5050678;28;20167;-39
2023/10/03 03:00:12;;;;;;;9.02;3.45;;;;;;;18.89;46.76;100627.78;5050814;28;20138;-39
2023/10/03 03:02:47;;;;;;;10.10;4.20;;;;;;;18.75;47.34;100629.88;5050901;28;20029;-38
2023/10/03 03:05:17;;;;;;;8.13;3.95;;;;;;;18.73;47.23;100626.63;5050729;28;20442;-37
2023/10/03 03:07:42;;;;;;;;;;;;;;;18.99;46.70;100627.19;5051311;28;20389;-39
2023/10/03 03:10:08;;;;;;;48.08;25.17;;;;;;;18.82;46.78;100632.47;5050691;28;19908;-39
2023/10/03 03:12:35;;;;;;;17.35;8.73;;;;;;;18.85;46.99;100628.47;5050529;28;20655;-41
2023/10/03 03:15:01;;;;;;;22.25;11.57;;;;;;;18.75;47.20;100624.50;5050800;28;20032;-41
2023/10/03 03:17:28;;;;;;;11.60;4.40;;;;;;;18.74;47.09;100620.16;5050913;28;20021;-39
2023/10/03 03:19:55;;;;;;;11.40;4.57;;;;;;;18.70;47.14;100618.19;5049503;28;20369;-39
2023/10/03 03:22:21;;;;;;;10.65;4.55;;;;;;;18.72;47.06;100622.25;5051048;28;20028;-39
2023/10/03 03:24:51;;;;;;;10.35;4.40;;;;;;;18.68;47.15;100620.28;5049898;28;20049;-38
2023/10/03 03:27:17;;;;;;;10.57;4.45;;;;;;;18.67;47.98;100624.03;5049942;28;20413;-39
2023/10/03 03:32:45;;;;;;;10.00;4.20;;;;;;;18.61;47.98;100620.41;5028134;28;20429;-38
2023/10/03 03:35:10;;;;;;;10.30;4.65;;;;;;;18.61;47.84;100624.97;5045492;28;20033;-39
2023/10/03 03:37:37;;;;;;;13.60;4.63;;;;;;;18.54;47.90;100619.69;5050917;28;20025;-37
2023/10/03 03:40:12;;;;;;;10.18;4.70;;;;;;;18.55;47.92;100615.94;5054116;28;20098;-38
2023/10/03 03:42:37;;;;;;;11.85;4.95;;;;;;;18.49;48.06;100615.00;5053528;28;20589;-39
2023/10/03 03:45:04;;;;;;;15.30;5.30;;;;;;;18.45;48.34;100613.00;5053345;28;20079;-39
2023/10/03 03:47:31;;;;;;;14.70;5.80;;;;;;;18.39;48.22;100612.09;5053395;28;20112;-39
2023/10/03 03:49:58;;;;;;;15.48;4.95;;;;;;;18.34;48.04;100604.69;5053500;28;20024;-39
2023/10/03 03:52:25;;;;;;;15.70;5.22;;;;;;;18.16;49.33;100613.72;5053815;28;20550;-39
2023/10/03 03:54:50;;;;;;;15.80;5.38;;;;;;;18.24;49.25;100607.16;5053438;28;20028;-39
2023/10/03 03:57:16;;;;;;;12.95;4.50;;;;;;;18.26;48.97;100606.91;5053487;28;20029;-40
2023/10/03 03:59:42;;;;;;;13.05;5.05;;;;;;;18.34;48.90;100606.59;5053413;28;20110;-40
2023/10/03 04:02:09;;;;;;;11.27;4.88;;;;;;;18.29;48.76;100601.88;5053556;28;20489;-40
2023/10/03 04:04:34;;;;;;;14.23;5.28;;;;;;;18.40;48.58;100615.59;5053525;28;20025;-39
2023/10/03 04:07:00;;;;;;;13.60;4.68;;;;;;;18.19;48.77;100614.31;5053414;28;20032;-39
2023/10/03 04:09:25;;;;;;;9.60;4.13;;;;;;;18.13;48.93;100616.88;5053840;28;20037;-42
2023/10/03 04:11:51;;;;;;;11.45;5.03;;;;;;;17.91;50.34;100615.75;5053609;28;20469;-41
2023/10/03 04:14:17;;;;;;;11.90;4.68;;;;;;;18.00;49.72;100619.78;5053588;28;20116;-40
2023/10/03 04:16:43;;;;;;;40.92;20.75;;;;;;;17.99;48.77;100623.50;5053673;28;20048;-41
2023/10/03 04:19:10;;;;;;;24.20;11.52;;;;;;;17.86;50.11;100619.16;5053394;28;20546;-41
2023/10/03 04:21:36;;;;;;;19.08;9.30;;;;;;;17.99;49.60;100623.50;5053100;28;20477;-40
2023/10/03 04:24:02;;;;;;;16.10;5.70;;;;;;;17.97;49.35;100622.91;5053471;28;20033;-39
2023/10/03 04:26:28;;;;;;;12.10;4.90;;;;;;;17.84;49.67;100623.97;5053302;28;20390;-39
2023/10/03 04:28:53;;;;;;;14.30;5.28;;;;;;;17.89;49.38;100624.06;5053522;28;20473;-40
2023/10/03 04:31:19;;;;;;;13.43;5.20;;;;;;;17.75;49.13;100619.91;5053309;28;20028;-40
2023/10/03 04:33:45;;;;;;;12.73;4.93;;;;;;;17.91;48.81;100619.28;5053087;28;20021;-39
2023/10/03 04:36:12;;;;;;;12.65;5.70;;;;;;;17.91;49.33;100627.34;5053491;28;20036;-42
2023/10/03 04:38:37;;;;;;;15.45;5.68;;;;;;;17.91;49.37;100627.34;5052847;28;20064;-39
2023/10/03 04:41:05;;;;;;;14.30;5.35;;;;;;;18.02;48.97;100623.06;5053433;28;20056;-42
2023/10/03 04:43:31;;;;;;;15.98;5.68;;;;;;;17.98;49.11;100628.06;5053351;28;20024;-41
2023/10/03 04:45:56;;;;;;;16.55;5.40;;;;;;;18.03;48.56;100640.03;5052976;28;20150;-41
2023/10/03 04:48:23;;;;;;;14.40;5.72;;;;;;;17.93;48.85;100633.34;5052779;28;20075;-42
2023/10/03 04:50:49;;;;;;;10.32;5.55;;;;;;;17.98;48.68;100638.84;5053109;28;20048;-40
2023/10/03 04:53:14;;;;;;;15.30;5.78;;;;;;;18.05;49.01;100644.16;5052943;28;20452;-39
2023/10/03 04:55:48;;;;;;;17.65;6.05;;;;;;;18.08;49.66;100637.47;5053779;28;20054;-41
2023/10/03 04:58:13;;;;;;;14.13;6.25;;;;;;;18.36;50.35;100644.88;5053345;28;20029;-38
2023/10/03 05:00:39;;;;;;;12.02;5.28;;;;;;;18.40;48.86;100637.16;5053345;28;20049;-43
2023/10/03 05:03:09;;;;;;;23.10;9.05;;;;;;;18.14;49.48;100644.59;5052959;28;20025;-42
2023/10/03 05:05:35;;;;;;;19.08;7.10;;;;;;;17.82;49.78;100647.56;5050816;28;20068;-40
2023/10/03 05:08:00;;;;;;;13.60;6.10;;;;;;;17.76;50.39;100645.78;5050432;28;20029;-39
2023/10/03 05:10:35;;;;;;;16.00;6.47;;;;;;;18.07;50.02;100643.91;5047086;28;20337;-39
2023/10/03 05:13:01;;;;;;;13.25;6.38;;;;;;;18.40;49.06;100645.25;5036298;28;20118;-39
2023/10/03 05:15:27;;;;;;;23.30;12.38;;;;;;;18.68;49.09;100650.75;5032081;28;20103;-39
2023/10/03 05:17:56;;;;;;;18.75;9.38;;;;;;;19.05;47.93;100647.81;5031652;28;20044;-39
2023/10/03 05:20:34;;;;;;;15.73;6.13;;;;;;;19.03;47.18;100654.50;5038819;28;20036;-39
2023/10/03 05:23:01;;;;;;;23.05;8.10;;;;;;;19.50;46.15;100665.19;5051219;28;20033;-40
2023/10/03 05:25:27;;;;;;;12.07;6.50;;;;;;;19.78;45.46;100667.09;5050861;28;20476;-39
2023/10/03 05:27:53;;;;;;;14.10;6.05;;;;;;;19.57;45.22;100668.53;5050465;28;20029;-40
2023/10/03 05:30:18;;;;;;;16.23;6.25;;;;;;;19.83;46.64;100675.25;5051928;28;20107;-41
2023/10/03 05:32:44;;;;;;;13.43;6.75;;;;;;;20.23;43.88;100668.94;5051335;28;20124;-39
2023/10/03 05:35:11;;;;;;;14.55;7.20;;;;;;;20.69;43.16;100679.69;5051453;28;20029;-39
2023/10/03 05:37:37;;;;;;;11.05;5.80;;;;;;;20.97;42.12;100670.63;5051024;28;20056;-40
2023/10/03 05:40:15;;;;;;;12.05;5.30;;;;;;;21.27;41.53;100670.19;5051144;28;20094;-40
2023/10/03 05:42:43;;;;;;;10.52;5.20;;;;;;;21.78;40.70;100685.41;5052088;28;20036;-40
2023/10/03 05:45:15;;;;;;;9.13;4.90;;;;;;;22.18;39.38;100682.28;5051975;28;20029;-40
2023/10/03 05:47:45;;;;;;;11.13;5.30;;;;;;;22.35;39.21;100684.06;5051878;28;20420;-39
2023/10/03 05:50:11;;;;;;;9.13;5.07;;;;;;;22.46;38.54;100688.47;5052154;28;20060;-40
2023/10/03 05:52:37;;;;;;;10.73;5.28;;;;;;;22.52;38.53;100694.75;5051345;28;20477;-40
2023/10/03 05:55:04;;;;;;;11.07;5.35;;;;;;;22.75;37.97;100698.97;5051308;28;20050;-40
2023/10/03 05:57:30;;;;;;;14.43;5.45;;;;;;;22.98;38.08;100700.47;5051386;28;20031;-41
2023/10/03 05:59:55;;;;;;;11.90;6.07;;;;;;;23.05;38.03;100697.56;5051347;28;20484;-40
2023/10/03 06:02:21;;;;;;;10.82;5.28;;;;;;;23.13;38.84;100699.78;5051697;28;20035;-41
2023/10/03 06:04:47;;;;;;;11.52;4.90;;;;;;;23.61;37.54;100711.41;5051542;28;20025;-40
2023/10/03 06:07:13;;;;;;;13.40;5.28;;;;;;;23.95;36.86;100713.66;5051733;28;20052;-41
2023/10/03 06:09:38;;;;;;;11.05;6.55;;;;;;;23.20;39.01;100708.50;5051062;28;20555;-39
2023/10/03 06:12:04;;;;;;;11.05;4.88;;;;;;;23.64;37.36;100707.31;5051300;28;20113;-43
2023/10/03 06:14:29;;;;;;;14.77;5.10;;;;;;;23.86;37.02;100702.53;5051403;28;20158;-40
2023/10/03 06:16:55;;;;;;;11.10;5.32;;;;;;;24.20;35.75;100705.56;5051529;28;20116;-40
2023/10/03 06:19:20;;;;;;;12.30;5.65;;;;;;;24.07;36.24;100708.00;5051425;28;20492;-41
2023/10/03 06:21:46;;;;;;;16.88;5.57;;;;;;;24.89;35.09;100706.06;5050994;28;20405;-40
2023/10/03 06:24:13;;;;;;;9.23;4.30;;;;;;;25.66;33.80;100710.41;5051104;28;20033;-41
2023/10/03 06:26:39;;;;;;;13.77;4.93;;;;;;;26.24;33.21;100724.25;5051105;28;20051;-42
2023/10/03 06:29:05;;;;;;;9.63;4.90;;;;;;;26.41;33.03;100718.41;5051052;28;20021;-44
2023/10/03 06:31:30;;;;;;;17.83;5.07;;;;;;;26.71;32.36;100722.78;5051376;28;20066;-41
2023/10/03 06:33:55;;;;;;;10.52;4.97;;;;;;;27.04;31.96;100719.44;5050907;28;20025;-41
2023/10/03 06:36:21;;;;;;;12.40;5.28;;;;;;;27.49;31.26;100723.59;5051270;28;20045;-42
2023/10/03 06:38:49;;;;;;;12.75;5.47;;;;;;;27.95;30.47;100716.69;5051297;28;20029;-40
2023/10/03 06:41:21;;;;;;;13.52;4.93;;;;;;;28.10;30.38;100723.00;5051083;28;20055;-42
2023/10/03 06:43:47;;;;;;;12.32;4.65;;;;;;;28.42;29.82;100719.47;5051146;28;20178;-41
2023/10/03 06:46:15;;;;;;;9.68;4.70;;;;;;;28.66;29.46;100730.34;5051428;28;20052;-40
2023/10/03 06:48:42;;;;;;;12.73;5.93;;;;;;;28.05;29.89;100724.72;5051221;28;20029;-41
2023/10/03 06:51:09;;;;;;;11.40;4.90;;;;;;;28.51;29.78;100730.56;5050885;28;20111;-43
2023/10/03 06:53:34;;;;;;;10.13;5.25;;;;;;;28.16;29.97;100730.03;5051135;28;20463;-42
2023/10/03 06:56:00;;;;;;;10.95;5.32;;;;;;;28.54;29.21;100722.59;5051033;28;20519;-42
2023/10/03 06:58:26;;;;;;;9.20;4.60;;;;;;;28.93;28.68;100726.00;5051012;28;20033;-42
2023/10/03 07:00:54;;;;;;;7.35;4.65;;;;;;;29.16;28.39;100718.72;5050575;28;20059;-44
2023/10/03 07:03:20;;;;;;;8.27;5.00;;;;;;;29.27;28.05;100728.38;5050625;28;20033;-40
2023/10/03 07:05:46;;;;;;;11.07;5.05;;;;;;;29.43;28.06;100731.59;5050183;28;20083;-41
2023/10/03 07:08:12;;;;;;;13.40;5.00;;;;;;;29.35;27.96;100730.38;5050887;28;20025;-43
2023/10/03 07:10:41;;;;;;;12.40;5.25;;;;;;;29.47;27.86;100721.63;5050647;28;20120;-42
2023/10/03 07:13:07;;;;;;;10.38;5.22;;;;;;;29.78;27.79;100726.50;5052297;28;20433;-42
2023/10/03 07:15:33;;;;;;;10.77;5.00;;;;;;;29.75;27.36;100727.09;5054333;28;20056;-40
2023/10/03 07:17:58;;;;;;;11.43;5.68;;;;;;;30.11;26.96;100726.28;5054678;28;20107;-42
2023/10/03 07:20:24;;;;;;;11.27;5.10;;;;;;;30.40;26.38;100728.59;5054099;28;20508;-43
2023/10/03 07:22:49;;;;;;;9.88;4.78;;;;;;;30.26;26.95;100727.84;5054750;28;20079;-42
2023/10/03 07:25:16;;;;;;;11.05;4.72;;;;;;;30.57;26.27;100725.97;5054614;28;20017;-42
2023/10/03 07:27:41;;;;;;;10.55;4.00;;;;;;;30.79;25.95;100719.63;5054627;28;20035;-40
2023/10/03 07:30:08;;;;;;;8.52;4.00;;;;;;;31.04;25.79;100733.00;5054366;28;20090;-41
2023/10/03 07:32:34;;;;;;;11.35;4.50;;;;;;;30.78;25.93;100722.69;5054534;28;20025;-44
2023/10/03 07:34:59;;;;;;;12.10;4.35;;;;;;;30.93;25.81;100727.78;5054517;28;20032;-45
2023/10/03 07:37:25;;;;;;;7.72;4.13;;;;;;;31.01;25.75;100723.44;5054389;28;20423;-40
2023/10/03 07:39:51;;;;;;;10.15;4.38;;;;;;;31.42;25.39;100724.22;5054477;28;20021;-42
2023/10/03 07:42:17;;;;;;;9.93;4.72;;;;;;;30.90;25.65;100713.88;5054235;28;20107;-40
2023/10/03 07:44:43;;;;;;;10.57;5.43;;;;;;;30.78;25.76;100717.97;5054202;28;20025;-42
2023/10/03 07:47:09;;;;;;;7.90;4.45;;;;;;;30.76;25.86;100714.75;5054270;28;20508;-42
2023/10/03 07:49:35;;;;;;;9.80;5.07;;;;;;;30.55;26.67;100711.72;5054025;28;20029;-42
2023/10/03 07:52:00;;;;;;;11.18;4.53;;;;;;;31.10;25.62;100727.03;5053734;28;20029;-43
2023/10/03 07:54:28;;;;;;;7.50;4.88;;;;;;;30.66;25.98;100714.22;5052799;28;20029;-44
2023/10/03 07:56:53;;;;;;;6.70;4.18;;;;;;;30.90;25.78;100714.69;5052949;28;20480;-42
2023/10/03 07:59:19;;;;;;;9.95;4.30;;;;;;;31.24;25.87;100718.66;5052751;28;20039;-43
2023/10/03 08:01:44;;;;;;;8.73;4.40;;;;;;;31.20;25.68;100717.69;5053389;28;20025;-45
2023/10/03 08:04:12;;;;;;;7.22;4.20;;;;;;;31.51;25.42;100716.81;5052704;28;20443;-45
2023/10/03 08:06:39;;;;;;;6.80;4.20;;;;;;;31.46;25.17;100711.44;5052561;28;20024;-41
2023/10/03 08:09:08;;;;;;;6.72;4.35;;;;;;;31.40;25.16;100712.72;5052840;28;20103;-44
2023/10/03 08:11:35;;;;;;;7.30;4.32;;;;;;;31.46;25.82;100706.78;5052593;28;20095;-44
2023/10/03 08:14:17;;;;;;;7.03;4.40;;;;;;;31.21;26.04;100704.78;5052587;28;20025;-42
2023/10/03 08:16:47;;;;;;;10.55;4.28;;;;;;;31.49;26.12;100703.41;5052862;28;20031;-41
2023/10/03 08:19:25;;;;;;;9.95;4.53;;;;;;;31.37;24.87;100705.94;5053070;28;20021;-44
2023/10/03 08:21:54;;;;;;;8.98;4.13;;;;;;;30.87;25.50;100703.50;5052051;28;20025;-42
2023/10/03 08:24:28;;;;;;;8.57;4.47;;;;;;;30.98;25.32;100702.13;5052194;28;20048;-42
2023/10/03 08:26:58;;;;;;;8.73;4.05;;;;;;;30.83;25.14;100705.25;5052337;28;20028;-41
2023/10/03 08:29:24;;;;;;;10.60;4.25;;;;;;;30.62;25.40;100703.06;5052218;28;20079;-42
2023/10/03 08:31:56;;;;;;;8.65;4.40;;;;;;;30.90;25.16;100700.13;5052175;28;20150;-42
2023/10/03 08:34:31;;;;;;;7.97;4.18;;;;;;;31.02;25.35;100697.59;5051986;28;20063;-42
2023/10/03 08:37:01;;;;;;;8.02;4.30;;;;;;;31.30;25.21;100698.16;5054483;28;20123;-41
2023/10/03 08:39:29;;;;;;;9.48;3.67;;;;;;;31.39;24.75;100692.66;5052788;28;20025;-41
2023/10/03 08:42:15;;;;;;;6.40;3.72;;;;;;;31.25;24.57;100695.56;5056533;28;21320;-41
2023/10/03 08:44:53;;;;;;;8.45;3.92;;;;;;;29.63;26.76;100690.03;5051604;28;20024;-40
2023/10/03 08:47:28;;;;;;;7.65;4.05;;;;;;;30.06;26.03;100691.53;5051382;28;20025;-43
2023/10/03 08:49:58;;;;;;;6.45;3.67;;;;;;;30.23;25.83;100681.81;5056560;28;20033;-41
2023/10/03 08:52:39;;;;;;;6.55;4.15;;;;;;;30.34;26.33;100681.25;5053562;28;20047;-43
2023/10/03 08:55:09;;;;;;;10.68;3.88;;;;;;;30.23;25.77;100682.59;5050395;28;20017;-44
2023/10/03 08:57:35;;;;;;;8.43;3.90;;;;;;;30.46;25.23;100675.19;5050516;28;20023;-46
2023/10/03 09:00:05;;;;;;;7.63;3.67;;;;;;;30.39;25.60;100672.09;5053860;28;20055;-43
2023/10/03 09:02:44;;;;;;;7.38;3.65;;;;;;;30.30;25.34;100688.47;5071304;28;20028;-44
2023/10/03 09:05:15;;;;;;;;;;;;;;;28.94;26.50;100670.94;5063824;28;20036;-42
2023/10/03 09:07:44;;;;;;;10.15;4.03;;;;;;;28.38;28.02;100663.72;5045690;28;19913;-44
2023/10/03 09:10:22;;;;;;;8.05;3.67;;;;;;;28.10;28.10;100663.63;5043122;28;20017;-44
2023/10/03 09:12:49;;;;;;;10.93;4.32;;;;;;;28.71;27.02;100671.91;5051284;28;20045;-43
2023/10/03 09:15:17;;;;;;;6.90;3.60;;;;;;;28.83;27.43;100658.53;5052667;28;20044;-44
2023/10/03 09:17:44;;;;;;;5.75;3.33;;;;;;;28.49;27.08;100670.66;5053118;28;20021;-49
2023/10/03 09:20:19;;;;;;;9.13;3.58;;;;;;;28.72;27.44;100665.34;5052408;28;20025;-47
2023/10/03 09:22:46;;;;;;;6.03;3.28;;;;;;;29.11;26.40;100662.09;5052431;28;20021;-46
2023/10/03 09:25:12;;;;;;;7.10;3.40;;;;;;;29.28;26.16;100661.47;5052254;28;20409;-46
2023/10/03 09:27:38;;;;;;;7.72;3.50;;;;;;;28.30;27.09;100656.22;5052263;28;20024;-50
2023/10/03 09:30:09;;;;;;;9.30;3.63;;;;;;;27.06;27.98;100648.97;5051831;28;20017;-43
2023/10/03 09:32:39;;;;;;;7.32;3.60;;;;;;;27.65;28.33;100642.16;5052633;28;20438;-47
2023/10/03 09:35:09;;;;;;;9.60;3.40;;;;;;;27.26;28.54;100642.44;5051729;28;20023;-46
2023/10/03 09:37:35;;;;;;;7.60;3.42;;;;;;;27.81;28.28;100655.59;5052350;28;20051;-46
2023/10/03 09:40:01;;;;;;;8.38;4.10;;;;;;;27.19;28.61;100637.31;5051391;28;20024;-46
2023/10/03 09:42:30;;;;;;;6.13;3.55;;;;;;;27.53;28.63;100643.72;5052354;28;20025;-49
2023/10/03 09:44:58;;;;;;;8.93;4.07;;;;;;;27.88;27.92;100643.22;5052043;28;20021;-42
2023/10/03 09:47:31;;;;;;;6.63;4.18;;;;;;;27.39;28.53;100638.19;5052038;28;20029;-44
2023/10/03 09:50:04;;;;;;;6.53;3.90;;;;;;;27.74;27.94;100634.13;5052165;28;20025;-42
2023/10/03 09:52:30;;;;;;;10.07;4.18;;;;;;;27.96;27.97;100616.28;5051491;28;20036;-45
2023/10/03 09:55:00;;;;;;;8.07;4.35;;;;;;;28.54;27.21;100637.75;5051798;28;20033;-47
2023/10/03 09:57:30;;;;;;;9.23;4.40;;;;;;;28.44;27.68;100622.28;5051359;28;20108;-45
2023/10/03 09:59:56;;;;;;;8.77;4.45;;;;;;;28.34;28.22;100633.41;5051234;28;20106;-43
2023/10/03 10:02:37;;;;;;;8.95;4.70;;;;;;;28.25;27.43;100613.31;5051348;28;20041;-43
2023/10/03 10:05:30;;;;;;;10.15;4.40;;;;;;;28.22;27.16;100616.69;5051246;28;20524;-46
2023/10/03 10:08:35;;;;;;;9.25;4.75;;;;;;;27.81;27.61;100625.53;5049293;28;20386;-44
2023/10/03 10:11:09;;;;;;;9.57;4.55;;;;;;;27.58;28.04;100611.66;5051359;28;20101;-44
2023/10/03 10:13:37;;;;;;;7.13;4.70;;;;;;;27.92;27.36;100607.06;5051396;28;20441;-47
2023/10/03 10:16:24;;;;;;;11.40;4.40;;;;;;;27.96;27.57;100605.34;5051229;28;20461;-42
2023/10/03 10:18:51;;;;;;;8.68;4.57;;;;;;;28.32;26.67;100604.72;5051013;28;20028;-44
2023/10/03 10:21:19;;;;;;;;;;;;;;;28.65;26.33;100600.00;5051491;28;20420;-44
2023/10/03 10:24:25;;;;;;;7.55;4.43;;;;;;;27.82;27.42;100588.88;5051428;28;20003;-45
2023/10/03 10:26:52;;;;;;;7.35;4.40;;;;;;;27.00;28.20;100585.41;5009126;28;20361;-45
2023/10/03 10:29:20;;;;;;;8.23;4.53;;;;;;;26.70;28.96;100586.59;5009433;28;20117;-44
2023/10/03 10:31:58;;;;;;;16.75;6.05;;;;;;;27.55;28.34;100574.00;5029835;28;20114;-45
2023/10/03 10:34:27;;;;;;;9.38;4.80;;;;;;;27.94;27.73;100577.50;5051270;28;20031;-45
2023/10/03 10:37:04;;;;;;;7.25;4.43;;;;;;;28.28;27.69;100577.97;5051118;28;20024;-44
2023/10/03 10:39:56;;;;;;;12.70;4.88;;;;;;;28.84;26.69;100570.59;5050899;28;20047;-44
2023/10/03 10:42:29;;;;;;;8.35;4.53;;;;;;;29.39;25.67;100574.34;5050936;28;20082;-43
2023/10/03 10:45:04;;;;;;;9.88;4.82;;;;;;;29.84;25.44;100566.16;5050785;28;20493;-43
2023/10/03 10:47:35;;;;;;;9.20;4.78;;;;;;;30.14;25.14;100564.56;5050529;28;20515;-44
2023/10/03 10:50:01;;;;;;;8.32;4.82;;;;;;;29.61;25.37;100563.41;5050725;28;20028;-41
2023/10/03 10:52:30;;;;;;;10.05;4.50;;;;;;;28.42;26.53;100556.06;5050871;28;20021;-46
2023/10/03 10:54:59;;;;;;;;;;;;;;;29.20;25.66;100545.16;5051163;28;20052;-43
2023/10/03 10:57:28;;;;;;;9.40;4.47;;;;;;;29.84;25.37;100555.19;5050486;28;19912;-44
2023/10/03 10:59:54;;;;;;;10.82;4.50;;;;;;;28.65;26.08;100548.81;5050550;28;20051;-44
2023/10/03 11:02:26;;;;;;;5.63;3.88;;;;;;;28.15;26.59;100543.19;5050493;28;20024;-46
2023/10/03 11:04:58;;;;;;;9.45;4.93;;;;;;;28.12;27.03;100543.81;5051072;28;20404;-44
2023/10/03 11:07:26;;;;;;;8.23;4.50;;;;;;;28.97;25.93;100538.00;5050603;28;20087;-42
2023/10/03 11:09:54;;;;;;;9.93;4.30;;;;;;;28.55;26.43;100540.00;5049917;28;20115;-47
2023/10/03 11:12:26;;;;;;;7.90;4.30;;;;;;;27.81;27.40;100538.81;5050561;28;20025;-44
2023/10/03 11:14:56;;;;;;;8.45;4.30;;;;;;;27.70;27.29;100526.44;5050875;28;20025;-43
2023/10/03 11:17:22;;;;;;;7.18;4.05;;;;;;;27.38;27.60;100533.53;5050791;28;20040;-44
2023/10/03 11:19:49;;;;;;;7.07;4.47;;;;;;;27.90;27.83;100530.00;5050526;28;20167;-43
2023/10/03 11:22:17;;;;;;;6.03;4.20;;;;;;;28.46;26.92;100518.78;5050434;28;20033;-44
2023/10/03 11:24:44;;;;;;;8.15;4.65;;;;;;;29.23;25.81;100513.63;5050810;28;20031;-45
2023/10/03 11:27:22;;;;;;;6.88;3.72;;;;;;;28.96;26.34;100514.47;5050582;28;20029;-43
2023/10/03 11:29:48;;;;;;;9.00;3.88;;;;;;;29.55;24.62;100508.97;5050467;28;20028;-43
2023/10/03 11:32:30;;;;;;;8.23;4.10;;;;;;;29.87;24.94;100502.44;5050319;28;20057;-43